createdAt,value
2018-08-09T00:01:29.858Z,25.34
2018-08-09T00:03:58.918Z,25.00
2018-08-09T00:06:27.929Z,25.26
2018-08-09T00:08:57.060Z,25.27
2018-08-09T00:11:26.254Z,24.89
2018-08-09T00:13:55.255Z,25.63
2018-08-09T00:16:24.249Z,25.77
2018-08-09T00:18:53.305Z,25.66
2018-08-09T00:21:22.322Z,25.55
2018-08-09T00:23:51.386Z,24.85
2018-08-09T00:26:20.300Z,24.89
2018-08-09T00:28:49.294Z,24.83
2018-08-09T00:31:18.291Z,24.74
2018-08-09T00:33:47.279Z,24.58
2018-08-09T00:36:16.240Z,24.61
2018-08-09T00:38:45.222Z,24.83
2018-08-09T00:41:14.200Z,24.68
2018-08-09T00:43:43.244Z,24.50
2018-08-09T00:46:12.209Z,24.40
2018-08-09T00:48:41.288Z,24.50
2018-08-09T00:51:11.216Z,24.29
2018-08-09T00:53:40.359Z,24.45
2018-08-09T00:56:09.329Z,24.35
2018-08-09T00:58:38.281Z,24.44
2018-08-09T01:01:07.473Z,24.93
2018-08-09T01:03:36.539Z,24.92
2018-08-09T01:06:05.443Z,24.80
2018-08-09T01:08:34.550Z,24.97
2018-08-09T01:11:03.601Z,25.09
2018-08-09T01:13:32.601Z,24.85
2018-08-09T01:16:01.601Z,24.78
2018-08-09T01:18:30.850Z,24.97
2018-08-09T01:20:59.826Z,25.15
2018-08-09T01:23:28.821Z,25.23
2018-08-09T01:26:00.694Z,25.09
2018-08-09T01:28:29.730Z,25.24
2018-08-09T01:30:58.730Z,25.06
2018-08-09T01:33:27.822Z,25.11
2018-08-09T01:35:56.834Z,24.77
2018-08-09T01:38:25.967Z,25.02
2018-08-09T01:40:54.997Z,25.05
2018-08-09T01:43:35.055Z,25.23
2018-08-09T01:46:04.073Z,25.06
2018-08-09T01:48:33.193Z,25.05
2018-08-09T01:51:02.221Z,25.14
2018-08-09T01:53:31.323Z,25.05
2018-08-09T01:56:00.330Z,25.03
2018-08-09T01:58:29.335Z,25.02
2018-08-09T02:00:58.285Z,25.05
2018-08-09T02:03:27.309Z,24.76
2018-08-09T02:05:56.345Z,24.69
2018-08-09T02:08:25.474Z,24.86
2018-08-09T02:10:54.497Z,25.02
2018-08-09T02:13:23.579Z,24.77
2018-08-09T02:15:52.545Z,25.05
2018-08-09T02:18:21.634Z,24.99
2018-08-09T02:20:50.603Z,24.92
2018-08-09T02:23:19.760Z,24.75
2018-08-09T02:25:48.794Z,24.83
2018-08-09T02:28:18.104Z,24.39
2018-08-09T02:30:47.089Z,24.13
2018-08-09T02:33:16.402Z,24.27
2018-08-09T02:35:45.580Z,23.86
2018-08-09T02:38:14.686Z,23.79
2018-08-09T02:40:43.669Z,23.76
2018-08-09T02:43:12.817Z,24.00
2018-08-09T02:45:41.772Z,24.00
2018-08-09T02:48:10.786Z,23.94
2018-08-09T02:50:39.843Z,24.06
2018-08-09T02:53:08.872Z,23.97
2018-08-09T02:55:37.977Z,23.97
2018-08-09T02:58:07.090Z,24.05
2018-08-09T03:00:36.117Z,23.80
2018-08-09T03:03:05.057Z,24.20
2018-08-09T03:05:34.160Z,23.95
2018-08-09T03:08:03.159Z,23.90
2018-08-09T03:10:32.255Z,23.94
2018-08-09T03:13:01.182Z,24.31
2018-08-09T03:15:30.305Z,24.22
2018-08-09T03:17:59.313Z,24.44
2018-08-09T03:20:28.405Z,24.31
2018-08-09T03:22:57.364Z,24.25
2018-08-09T03:25:26.476Z,24.14
2018-08-09T03:27:55.462Z,23.81
2018-08-09T03:30:24.452Z,23.91
2018-08-09T03:32:53.649Z,23.57
2018-08-09T03:35:22.642Z,23.91
2018-08-09T03:37:51.626Z,23.78
2018-08-09T03:40:20.613Z,24.10
2018-08-09T03:42:49.574Z,24.07
2018-08-09T03:45:18.570Z,24.21
2018-08-09T03:47:47.537Z,24.37
2018-08-09T03:50:16.606Z,23.98
2018-08-09T03:52:45.564Z,24.09
2018-08-09T03:55:14.594Z,23.86
2018-08-09T03:57:43.562Z,24.15
2018-08-09T04:00:12.821Z,24.31
2018-08-09T04:02:41.858Z,24.42
2018-08-09T04:05:11.189Z,24.02
2018-08-09T04:07:40.762Z,23.48
2018-08-09T04:10:10.053Z,24.16
2018-08-09T04:12:39.175Z,24.02
2018-08-09T04:15:09.578Z,24.24
2018-08-09T04:17:38.636Z,24.33
2018-08-09T04:20:07.931Z,24.24
2018-08-09T04:22:36.947Z,23.99
2018-08-09T04:25:06.486Z,24.22
2018-08-09T04:27:35.462Z,24.36
2018-08-09T04:30:05.072Z,24.55
2018-08-09T04:32:34.094Z,24.44
2018-08-09T04:35:03.170Z,24.31
2018-08-09T04:37:32.310Z,24.33
2018-08-09T04:40:01.421Z,24.28
2018-08-09T04:42:30.544Z,24.04
2018-08-09T04:44:59.647Z,24.06
2018-08-09T04:47:28.646Z,24.44
2018-08-09T04:49:57.702Z,24.40
2018-08-09T04:52:26.673Z,24.77
2018-08-09T04:54:55.761Z,24.51
2018-08-09T04:57:24.832Z,24.67
2018-08-09T04:59:53.784Z,24.53
2018-08-09T05:02:22.841Z,24.28
2018-08-09T05:04:52.156Z,24.63
2018-08-09T05:07:21.174Z,24.72
2018-08-09T05:09:50.187Z,24.79
2018-08-09T05:12:19.202Z,24.69
2018-08-09T05:14:48.184Z,24.60
2018-08-09T05:17:17.253Z,24.68
2018-08-09T05:19:46.175Z,24.57
2018-08-09T05:22:15.227Z,24.39
2018-08-09T05:24:44.225Z,24.53
2018-08-09T05:27:13.254Z,24.42
2018-08-09T05:29:42.304Z,24.44
2018-08-09T05:32:11.825Z,24.47
2018-08-09T05:34:41.378Z,24.55
2018-08-09T05:37:10.447Z,24.71
2018-08-09T05:39:39.421Z,24.56
2018-08-09T05:42:08.430Z,24.73
2018-08-09T05:44:37.446Z,24.71
2018-08-09T05:47:06.414Z,24.52
2018-08-09T05:49:35.386Z,24.66
2018-08-09T05:52:04.477Z,24.69
2018-08-09T05:54:33.435Z,24.66
2018-08-09T05:57:02.462Z,24.91
2018-08-09T05:59:31.528Z,24.83
2018-08-09T06:02:00.564Z,24.74
2018-08-09T06:04:29.605Z,24.48
2018-08-09T06:06:58.641Z,24.60
2018-08-09T06:09:27.573Z,24.66
2018-08-09T06:11:56.930Z,24.74
2018-08-09T06:14:27.206Z,25.19
2018-08-09T06:16:56.201Z,25.40
2018-08-09T06:19:31.558Z,25.16
2018-08-09T06:22:00.700Z,25.10
2018-08-09T06:24:29.779Z,24.99
2018-08-09T06:26:58.863Z,25.53
2018-08-09T06:29:27.923Z,25.91
2018-08-09T06:31:57.350Z,25.21
2018-08-09T06:34:26.644Z,26.03
2018-08-09T06:36:55.753Z,25.55
2018-08-09T06:39:25.191Z,25.48
2018-08-09T06:41:54.432Z,25.22
2018-08-09T06:44:23.781Z,25.46
2018-08-09T06:46:53.562Z,24.96
2018-08-09T06:49:22.598Z,25.06
2018-08-09T06:51:51.669Z,25.36
2018-08-09T06:54:20.765Z,25.24
2018-08-09T06:56:49.908Z,25.48
2018-08-09T06:59:18.840Z,25.29
2018-08-09T07:01:48.651Z,25.26
2018-08-09T07:04:17.675Z,25.26
2018-08-09T07:06:46.836Z,25.76
2018-08-09T07:09:15.902Z,26.07
2018-08-09T07:11:44.930Z,26.04
2018-08-09T07:14:13.965Z,25.94
2018-08-09T07:16:43.271Z,25.64
2018-08-09T07:19:12.295Z,25.51
2018-08-09T07:21:41.318Z,25.55
2018-08-09T07:24:10.355Z,25.71
2018-08-09T07:26:39.487Z,26.33
2018-08-09T07:29:08.661Z,26.59
2018-08-09T07:31:37.693Z,26.12
2018-08-09T07:34:06.692Z,26.00
2018-08-09T07:36:36.971Z,25.78
2018-08-09T07:39:08.333Z,25.69
2018-08-09T07:41:38.250Z,26.26
2018-08-09T07:44:07.327Z,25.93
2018-08-09T07:46:36.384Z,26.18
2018-08-09T07:49:05.373Z,26.45
2018-08-09T07:51:34.397Z,26.93
2018-08-09T07:54:03.364Z,27.03
2018-08-09T07:56:32.423Z,27.17
2018-08-09T07:59:01.646Z,27.22
2018-08-09T08:01:30.645Z,27.09
2018-08-09T08:03:59.809Z,26.85
2018-08-09T08:06:29.222Z,27.36
2018-08-09T08:08:58.408Z,27.91
2018-08-09T08:11:28.794Z,27.87
2018-08-09T08:13:57.807Z,28.36
2018-08-09T08:16:26.819Z,28.07
2018-08-09T08:18:55.773Z,28.31
2018-08-09T08:21:25.055Z,28.14
2018-08-09T08:23:54.484Z,28.78
2018-08-09T08:26:23.530Z,28.67
2018-08-09T08:28:52.589Z,28.71
2018-08-09T08:31:21.756Z,29.30
2018-08-09T08:33:50.693Z,28.59
2018-08-09T08:36:19.858Z,28.99
2018-08-09T08:38:49.166Z,28.95
2018-08-09T08:41:18.267Z,28.90
2018-08-09T08:43:47.602Z,28.44
2018-08-09T08:46:16.780Z,28.51
2018-08-09T08:48:46.343Z,28.79
2018-08-09T08:51:15.369Z,29.39
2018-08-09T08:53:45.001Z,29.59
2018-08-09T08:56:13.948Z,29.58
2018-08-09T08:58:42.959Z,29.55
2018-08-09T09:01:12.048Z,30.13
2018-08-09T09:03:41.218Z,30.20
2018-08-09T09:06:10.492Z,30.39
2018-08-09T09:08:40.210Z,31.00
2018-08-09T09:11:09.175Z,30.86
2018-08-09T09:13:41.331Z,30.70
2018-08-09T09:16:10.418Z,30.72
2018-08-09T09:18:39.523Z,30.88
2018-08-09T09:21:08.769Z,31.43
2018-08-09T09:23:38.355Z,31.26
2018-08-09T09:26:07.461Z,30.94
2018-08-09T09:28:36.525Z,31.52
2018-08-09T09:31:08.998Z,32.67
2018-08-09T09:33:38.554Z,31.94
2018-08-09T09:36:07.960Z,31.37
2018-08-09T09:38:38.729Z,32.01
2018-08-09T09:41:08.040Z,31.52
2018-08-09T09:43:37.141Z,31.32
2018-08-09T09:46:06.147Z,31.56
2018-08-09T09:48:35.275Z,31.65
2018-08-09T09:51:04.477Z,32.01
2018-08-09T09:53:33.970Z,30.91
2018-08-09T09:56:03.098Z,31.40
2018-08-09T09:58:32.878Z,31.99
2018-08-09T10:01:06.934Z,32.60
2018-08-09T10:03:36.066Z,31.57
2018-08-09T10:06:05.213Z,31.85
2018-08-09T10:08:34.281Z,31.28
2018-08-09T10:11:03.466Z,31.40
2018-08-09T10:13:32.967Z,32.80
2018-08-09T10:16:02.012Z,32.39
2018-08-09T10:18:31.540Z,32.16
2018-08-09T10:21:00.743Z,32.21
2018-08-09T10:23:30.038Z,31.92
2018-08-09T10:25:59.078Z,32.74
2018-08-09T10:28:28.208Z,32.76
2018-08-09T10:30:57.160Z,33.29
2018-08-09T10:33:26.161Z,32.48
2018-08-09T10:35:55.221Z,33.09
2018-08-09T10:38:24.507Z,32.51
2018-08-09T10:40:53.492Z,32.60
2018-08-09T10:43:22.886Z,33.81
2018-08-09T10:45:51.923Z,33.76
2018-08-09T10:48:20.950Z,33.19
2018-08-09T10:50:49.900Z,34.08
2018-08-09T10:53:19.157Z,33.86
2018-08-09T10:55:48.766Z,34.06
2018-08-09T10:58:17.861Z,34.46
2018-08-09T11:00:46.817Z,33.77
2018-08-09T11:03:15.843Z,33.22
2018-08-09T11:05:44.797Z,33.20
2018-08-09T11:08:14.029Z,33.45
2018-08-09T11:10:43.026Z,33.79
2018-08-09T11:13:12.101Z,33.96
2018-08-09T11:15:41.153Z,33.19
2018-08-09T11:18:10.235Z,33.37
2018-08-09T11:20:39.477Z,34.35
2018-08-09T11:23:08.662Z,34.69
2018-08-09T11:25:37.758Z,33.38
2018-08-09T11:28:06.915Z,33.36
2018-08-09T11:30:35.979Z,33.65
2018-08-09T11:33:10.386Z,33.91
2018-08-09T11:35:39.486Z,34.62
2018-08-09T11:38:08.500Z,35.09
2018-08-09T11:40:37.495Z,33.92
2018-08-09T11:43:06.870Z,33.23
2018-08-09T11:45:35.868Z,34.06
2018-08-09T11:48:04.917Z,33.81
2018-08-09T11:50:34.012Z,33.88
2018-08-09T11:53:03.149Z,32.92
2018-08-09T11:55:32.533Z,33.21
2018-08-09T11:58:01.618Z,33.00
2018-08-09T12:00:30.649Z,32.73
2018-08-09T12:02:59.637Z,32.83
2018-08-09T12:05:28.629Z,32.95
2018-08-09T12:07:57.746Z,32.72
2018-08-09T12:10:26.745Z,32.74
2018-08-09T12:12:55.918Z,32.75
2018-08-09T12:15:25.069Z,32.67
2018-08-09T12:17:54.192Z,32.16
2018-08-09T12:20:23.203Z,31.37
2018-08-09T12:22:53.242Z,31.55
2018-08-09T12:25:22.536Z,32.53
2018-08-09T12:27:51.524Z,31.80
2018-08-09T12:30:20.588Z,27.65
2018-08-09T12:32:49.561Z,27.20
2018-08-09T12:35:18.662Z,27.21
2018-08-09T12:37:47.603Z,27.64
2018-08-09T12:40:16.643Z,26.96
2018-08-09T12:42:45.629Z,26.18
2018-08-09T12:45:14.718Z,24.54
2018-08-09T12:47:44.357Z,24.54
2018-08-09T12:50:14.465Z,22.29
2018-08-09T12:52:44.284Z,22.05
2018-08-09T12:55:14.423Z,23.42
2018-08-09T12:57:43.434Z,21.97
2018-08-09T13:00:13.942Z,24.96
2018-08-09T13:02:43.146Z,22.87
2018-08-09T13:05:13.204Z,23.45
2018-08-09T13:07:42.522Z,23.35
2018-08-09T13:10:13.025Z,23.56
2018-08-09T13:12:42.102Z,23.13
2018-08-09T13:15:13.439Z,23.28
2018-08-09T13:17:43.374Z,23.35
2018-08-09T13:20:18.343Z,24.24
2018-08-09T13:22:48.127Z,24.00
2018-08-09T13:25:17.134Z,23.96
2018-08-09T13:27:46.393Z,23.32
2018-08-09T13:30:15.469Z,23.56
2018-08-09T13:32:45.408Z,23.26
2018-08-09T13:35:14.529Z,24.00
2018-08-09T13:37:43.526Z,23.54
2018-08-09T13:40:12.561Z,23.42
2018-08-09T13:42:42.019Z,23.70
2018-08-09T13:45:15.317Z,23.56
2018-08-09T13:47:44.313Z,23.05
2018-08-09T13:50:13.824Z,23.25
2018-08-09T13:52:43.163Z,23.68
2018-08-09T13:55:13.491Z,24.21
2018-08-09T13:57:42.534Z,24.04
2018-08-09T14:00:13.022Z,24.32
2018-08-09T14:02:43.542Z,23.77
2018-08-09T14:05:12.592Z,23.89
2018-08-09T14:07:43.242Z,23.82
2018-08-09T14:10:12.905Z,23.62
2018-08-09T14:12:42.657Z,23.44
2018-08-09T14:15:13.165Z,24.33
2018-08-09T14:17:42.569Z,24.83
2018-08-09T14:20:14.241Z,24.56
2018-08-09T14:22:43.326Z,24.34
2018-08-09T14:25:12.734Z,24.25
2018-08-09T14:27:41.747Z,23.94
2018-08-09T14:30:13.007Z,24.03
2018-08-09T14:32:42.218Z,24.09
2018-08-09T14:35:13.673Z,24.15
2018-08-09T14:37:43.601Z,23.92
2018-08-09T14:40:13.059Z,23.85
2018-08-09T14:42:42.061Z,23.99
2018-08-09T14:45:13.182Z,24.18
2018-08-09T14:47:42.205Z,24.44
2018-08-09T14:50:11.274Z,24.97
2018-08-09T14:52:40.280Z,24.75
2018-08-09T14:55:10.847Z,24.67
2018-08-09T14:57:40.095Z,24.57
2018-08-09T15:00:12.024Z,24.12
2018-08-09T15:02:40.969Z,24.27
2018-08-09T15:05:10.049Z,24.17
2018-08-09T15:07:39.003Z,24.21
2018-08-09T15:10:08.190Z,24.18
2018-08-09T15:12:37.293Z,23.88
2018-08-09T15:15:08.416Z,23.87
2018-08-09T15:17:37.379Z,23.72
2018-08-09T15:20:08.214Z,23.99
2018-08-09T15:22:37.280Z,23.91
2018-08-09T15:25:07.154Z,24.16
2018-08-09T15:27:36.163Z,24.28
2018-08-09T15:30:07.066Z,24.27
2018-08-09T15:32:36.129Z,24.61
2018-08-09T15:35:05.214Z,24.75
2018-08-09T15:37:34.381Z,25.03
2018-08-09T15:40:03.543Z,25.03
2018-08-09T15:42:32.638Z,24.61
2018-08-09T15:45:01.678Z,24.59
2018-08-09T15:47:30.787Z,24.65
2018-08-09T15:49:59.670Z,24.81
2018-08-09T15:52:28.690Z,25.00
2018-08-09T15:54:57.706Z,25.25
2018-08-09T15:57:26.699Z,25.69
2018-08-09T15:59:55.806Z,25.69
2018-08-09T16:02:24.928Z,25.56
2018-08-09T16:04:54.046Z,25.17
2018-08-09T16:07:23.023Z,25.06
2018-08-09T16:09:52.043Z,24.95
2018-08-09T16:12:21.043Z,24.99
2018-08-09T16:14:50.067Z,25.04
2018-08-09T16:17:19.061Z,25.15
2018-08-09T16:19:48.064Z,25.44
2018-08-09T16:22:17.153Z,25.18
2018-08-09T16:24:46.205Z,25.00
2018-08-09T16:27:15.155Z,25.34
2018-08-09T16:29:44.182Z,25.67
2018-08-09T16:32:13.192Z,25.23
2018-08-09T16:34:42.238Z,25.47
2018-08-09T16:37:11.273Z,25.49
2018-08-09T16:39:40.228Z,25.41
2018-08-09T16:42:09.279Z,25.43
2018-08-09T16:44:38.285Z,25.38
2018-08-09T16:47:07.229Z,25.32
2018-08-09T16:49:36.159Z,25.75
2018-08-09T16:52:05.366Z,26.00
2018-08-09T16:54:34.338Z,25.94
2018-08-09T16:57:03.383Z,25.75
2018-08-09T16:59:32.302Z,25.49
2018-08-09T17:02:01.268Z,25.28
2018-08-09T17:04:30.175Z,25.46
2018-08-09T17:06:59.099Z,25.59
2018-08-09T17:09:28.100Z,25.49
2018-08-09T17:11:57.046Z,25.25
2018-08-09T17:14:26.038Z,25.15
2018-08-09T17:16:55.026Z,25.14
2018-08-09T17:19:24.010Z,25.25
2018-08-09T17:21:53.040Z,25.33
2018-08-09T17:24:21.960Z,25.83
2018-08-09T17:26:50.969Z,25.41
2018-08-09T17:29:19.996Z,25.31
2018-08-09T17:31:48.948Z,25.55
2018-08-09T17:34:17.865Z,25.54
2018-08-09T17:36:46.957Z,25.45
2018-08-09T17:39:15.921Z,25.20
2018-08-09T17:41:44.952Z,25.37
2018-08-09T17:44:13.925Z,25.40
2018-08-09T17:46:43.339Z,25.42
2018-08-09T17:49:12.232Z,25.33
2018-08-09T17:51:41.170Z,25.23
2018-08-09T17:54:10.145Z,25.36
2018-08-09T17:56:39.155Z,25.39
2018-08-09T17:59:08.111Z,25.24
2018-08-09T18:01:37.130Z,25.20
2018-08-09T18:04:06.120Z,25.39
2018-08-09T18:06:35.160Z,25.25
2018-08-09T18:09:04.423Z,25.40
2018-08-09T18:11:33.509Z,25.30
2018-08-09T18:14:02.544Z,25.48
2018-08-09T18:16:31.585Z,25.59
2018-08-09T18:19:00.594Z,25.45
2018-08-09T18:21:29.666Z,25.06
2018-08-09T18:23:58.739Z,25.14
2018-08-09T18:26:27.827Z,25.01
2018-08-09T18:28:56.818Z,24.89
2018-08-09T18:31:25.875Z,24.80
2018-08-09T18:33:54.972Z,25.01
2018-08-09T18:36:24.028Z,24.94
2018-08-09T18:38:52.994Z,24.84
2018-08-09T18:41:22.140Z,25.03
2018-08-09T18:43:51.318Z,24.80
2018-08-09T18:46:20.281Z,24.77
2018-08-09T18:48:49.302Z,25.19
2018-08-09T18:51:18.309Z,24.89
2018-08-09T18:53:47.250Z,24.21
2018-08-09T18:56:16.322Z,24.11
2018-08-09T18:58:45.284Z,24.41
2018-08-09T19:01:14.335Z,24.67
2018-08-09T19:03:43.343Z,24.79
2018-08-09T19:06:12.327Z,24.51
2018-08-09T19:08:41.414Z,24.55
2018-08-09T19:11:10.382Z,24.86
2018-08-09T19:13:39.414Z,24.50
2018-08-09T19:16:08.362Z,24.78
2018-08-09T19:18:37.344Z,24.79
2018-08-09T19:21:06.373Z,24.36
2018-08-09T19:23:35.354Z,24.44
2018-08-09T19:26:04.362Z,24.54
2018-08-09T19:28:33.400Z,24.81
2018-08-09T19:31:02.340Z,24.80
2018-08-09T19:33:31.350Z,24.33
2018-08-09T19:36:00.328Z,24.31
2018-08-09T19:38:29.413Z,24.37
2018-08-09T19:40:58.366Z,24.46
2018-08-09T19:43:27.343Z,24.27
2018-08-09T19:45:56.342Z,24.23
2018-08-09T19:48:25.382Z,23.98
2018-08-09T19:50:54.273Z,24.12
2018-08-09T19:53:23.309Z,24.00
2018-08-09T19:55:52.239Z,24.07
2018-08-09T19:58:21.229Z,23.99
2018-08-09T20:00:50.232Z,23.81
2018-08-09T20:03:19.320Z,23.90
2018-08-09T20:05:48.313Z,23.91
2018-08-09T20:08:17.369Z,23.77
2018-08-09T20:10:46.329Z,23.91
2018-08-09T20:13:15.395Z,23.64
2018-08-09T20:15:44.488Z,23.69
2018-08-09T20:18:13.498Z,23.48
2018-08-09T20:20:42.455Z,23.81
2018-08-09T20:23:11.426Z,23.70
2018-08-09T20:25:40.449Z,23.46
2018-08-09T20:28:09.685Z,23.35
2018-08-09T20:30:38.751Z,23.64
2018-08-09T20:33:07.893Z,23.41
2018-08-09T20:35:36.946Z,23.03
2018-08-09T20:38:05.972Z,23.06
2018-08-09T20:40:35.018Z,22.97
2018-08-09T20:43:04.005Z,23.04
2018-08-09T20:45:32.955Z,23.03
2018-08-09T20:48:01.985Z,22.93
2018-08-09T20:50:31.046Z,23.05
2018-08-09T20:53:00.069Z,22.85
2018-08-09T20:55:29.049Z,22.77
2018-08-09T20:57:58.465Z,22.85
2018-08-09T21:00:29.152Z,22.94
2018-08-09T21:02:59.206Z,22.75
2018-08-09T21:05:32.758Z,23.25
2018-08-09T21:08:01.846Z,23.21
2018-08-09T21:10:31.297Z,22.98
2018-08-09T21:13:00.313Z,23.18
2018-08-09T21:15:30.329Z,23.31
2018-08-09T21:17:59.405Z,22.72
2018-08-09T21:20:28.363Z,22.69
2018-08-09T21:22:57.443Z,22.43
2018-08-09T21:25:26.461Z,22.73
2018-08-09T21:27:55.485Z,22.56
2018-08-09T21:30:25.115Z,22.49
2018-08-09T21:32:54.263Z,22.44
2018-08-09T21:35:23.234Z,22.57
2018-08-09T21:37:52.178Z,22.25
2018-08-09T21:40:21.201Z,22.52
2018-08-09T21:42:50.205Z,22.43
2018-08-09T21:45:20.177Z,22.23
2018-08-09T21:47:49.227Z,22.52
2018-08-09T21:50:20.404Z,22.45
2018-08-09T21:52:49.625Z,22.38
2018-08-09T21:55:18.621Z,22.09
2018-08-09T21:57:48.340Z,22.21
2018-08-09T22:00:57.710Z,22.14
2018-08-09T22:03:28.926Z,22.09
2018-08-09T22:06:02.913Z,22.07
2018-08-09T22:08:36.956Z,21.95
2018-08-09T22:11:11.361Z,22.02
2018-08-09T22:13:45.374Z,22.14
2018-08-09T22:16:19.459Z,22.03
2018-08-09T22:18:53.487Z,22.17
2018-08-09T22:21:27.625Z,22.01
2018-08-09T22:23:56.777Z,22.17
2018-08-09T22:26:25.729Z,21.80
2018-08-09T22:28:54.727Z,21.96
2018-08-09T22:31:23.798Z,21.90
2018-08-09T22:33:52.923Z,21.64
2018-08-09T22:36:22.023Z,22.02
2018-08-09T22:38:51.131Z,21.79
2018-08-09T22:41:20.134Z,21.71
2018-08-09T22:43:49.194Z,21.72
2018-08-09T22:46:18.174Z,21.90
2018-08-09T22:48:47.213Z,21.72
2018-08-09T22:51:16.173Z,21.62
2018-08-09T22:53:45.166Z,21.67
2018-08-09T22:56:14.134Z,21.67
2018-08-09T22:58:43.162Z,21.75
2018-08-09T23:01:12.202Z,21.62
2018-08-09T23:03:41.327Z,21.50
2018-08-09T23:06:10.457Z,21.47
2018-08-09T23:08:39.462Z,21.35
2018-08-09T23:11:08.628Z,21.60
2018-08-09T23:13:37.641Z,21.45
2018-08-09T23:16:06.926Z,21.42
2018-08-09T23:18:35.933Z,21.61
2018-08-09T23:21:05.017Z,21.71
2018-08-09T23:23:34.069Z,21.64
2018-08-09T23:26:02.999Z,21.49
2018-08-09T23:28:32.129Z,21.45
2018-08-09T23:31:01.105Z,21.14
2018-08-09T23:33:30.025Z,21.23
2018-08-09T23:35:58.997Z,20.92
2018-08-09T23:38:27.952Z,20.92
2018-08-09T23:40:56.909Z,21.11
2018-08-09T23:43:25.878Z,20.82
2018-08-09T23:45:54.909Z,21.13
2018-08-09T23:48:23.842Z,20.87
2018-08-09T23:50:52.973Z,21.12
2018-08-09T23:53:21.935Z,20.81
2018-08-09T23:55:51.009Z,20.68
2018-08-09T23:58:19.921Z,20.74
